Aeroporto :
LOGIN :

Iscrizione | Disclaimer

   EN    FR    IT 

 










Sommario :    VFR   VFR Marginale   IFR   IFR Intensivo   IFR Molto Intensivo
Visibilità : 
Base nubi : 
>= 8 km
>= 3000ft
5 / 8 km
1000 / 3000 ft
1500m / 5 km
500 / 1000 ft
800 / 1500m
200 / 500 ft
< 800m
< 200 ft
Simboli :   Temporali  Nebbia  Neve Forte  Precipitazioni Forti  Vento > 20 kt
SIGMETs :   Varie  Temporali  Ghiacco  Turbolenza  Onda orograficha  Ceneri Vulcaniche







- Altitudine del aeroporto : 465 ft
- Codice IATA : LEJ


EDDP - Leipzig Halle

ULTIMO METAR :
  • 240420Z 15004KT 130V200 CAVOK 10/08 Q1015 NOSIG

METARs OBSOLETI :
  • 240350Z 16003KT CAVOK 10/08 Q1015 NOSIG
  • 240320Z 17006KT 150V210 CAVOK 10/07 Q1015 NOSIG
  • 240250Z 17005KT CAVOK 10/07 Q1015 NOSIG
  • 240220Z 16005KT CAVOK 10/07 Q1015 NOSIG
  • 240150Z 16005KT CAVOK 10/07 Q1016 NOSIG

TAF TAF EDDP
Valido dal 24 a 00 ore il 25 a 00 ore UTC


232300Z 2400/2424 12004KT CAVOK
BECMG 2400/2403 18005KT
BECMG 2406/2409 26006KT
Nessun NOTAM noto per questo aeroporto.



MetMap, La meteo Aeronautica in un colpo d'occhio ! - Copyright ORBIFLY Dicembre 2007 - Disclaimer

ORBIFLY MET'MAP TEAM :

Programmazione e sviluppo : Alexandra Zaïnal
Concezione e sviluppo : Baudouin d'Aumeries
Co-Programmazione e sviluppo : Marc-Olivier Méhu
Supporto tecnico e logistico : Manuel Goepfert
Aiuto per la traduzione : Arnaldo La Scala

Contatto : metmap@orbifly.com




FONTI E CREDITI :

   NOAA